createdAt,value
2022-10-16T00:01:16.198Z,32.77
2022-10-16T00:03:43.406Z,31.17
2022-10-16T00:06:10.129Z,29.50
2022-10-16T00:08:36.953Z,31.73
2022-10-16T00:11:04.208Z,32.07
2022-10-16T00:13:31.046Z,30.50
2022-10-16T00:15:58.273Z,30.57
2022-10-16T00:18:25.088Z,31.07
2022-10-16T00:20:52.065Z,31.33
2022-10-16T00:23:18.694Z,30.30
2022-10-16T00:25:45.354Z,31.57
2022-10-16T00:28:11.970Z,30.47
2022-10-16T00:30:39.116Z,31.10
2022-10-16T00:33:05.670Z,29.80
2022-10-16T00:35:32.317Z,28.87
2022-10-16T00:37:58.899Z,30.70
2022-10-16T00:40:25.461Z,28.47
2022-10-16T00:42:52.132Z,28.73
2022-10-16T00:45:19.029Z,30.07
2022-10-16T00:47:46.908Z,29.13
2022-10-16T00:50:22.935Z,27.57
2022-10-16T00:52:49.608Z,26.70
2022-10-16T00:55:16.195Z,25.90
2022-10-16T00:57:42.888Z,26.33
2022-10-16T01:00:10.243Z,26.77
2022-10-16T01:02:36.846Z,25.37
2022-10-16T01:05:03.648Z,24.90
2022-10-16T01:08:02.819Z,25.07
2022-10-16T01:10:29.617Z,22.53
2022-10-16T01:13:04.032Z,23.00
2022-10-16T01:15:30.723Z,22.73
2022-10-16T01:18:12.366Z,23.60
2022-10-16T01:20:46.878Z,23.80
2022-10-16T01:23:28.502Z,22.47
2022-10-16T01:25:59.730Z,23.83
2022-10-16T01:28:28.901Z,25.00
2022-10-16T01:30:56.543Z,21.10
2022-10-16T01:33:28.213Z,22.33
2022-10-16T01:35:56.189Z,23.17
2022-10-16T01:38:25.091Z,22.33
2022-10-16T01:40:53.010Z,22.67
2022-10-16T01:43:29.993Z,21.33
2022-10-16T01:46:17.847Z,21.87
2022-10-16T01:48:44.469Z,20.83
2022-10-16T01:51:11.665Z,20.97
2022-10-16T01:53:38.909Z,21.10
2022-10-16T01:56:06.410Z,20.47
2022-10-16T01:58:35.666Z,20.73
2022-10-16T02:01:02.792Z,20.90
2022-10-16T02:03:29.625Z,20.07
2022-10-16T02:05:56.901Z,19.00
2022-10-16T02:08:24.067Z,19.33
2022-10-16T02:10:50.985Z,18.53
2022-10-16T02:13:29.901Z,17.27
2022-10-16T02:15:56.482Z,18.03
2022-10-16T02:18:23.171Z,17.77
2022-10-16T02:20:51.809Z,18.30
2022-10-16T02:23:21.231Z,17.20
2022-10-16T02:25:47.809Z,17.20
2022-10-16T02:28:24.933Z,17.33
2022-10-16T02:30:52.312Z,17.03
2022-10-16T02:33:18.942Z,17.77
2022-10-16T02:35:46.156Z,16.90
2022-10-16T02:38:12.837Z,16.93
2022-10-16T02:40:40.633Z,17.47
2022-10-16T02:43:07.587Z,17.27
2022-10-16T02:45:34.253Z,17.70
2022-10-16T02:48:00.775Z,17.83
2022-10-16T02:50:27.455Z,17.07
2022-10-16T02:52:54.000Z,16.90
2022-10-16T02:55:20.573Z,18.20
2022-10-16T02:57:47.165Z,17.93
2022-10-16T03:00:14.380Z,18.37
2022-10-16T03:02:40.956Z,18.57
2022-10-16T03:05:09.024Z,18.93
2022-10-16T03:07:35.630Z,17.80
2022-10-16T03:10:02.408Z,17.07
2022-10-16T03:12:29.223Z,17.40
2022-10-16T03:14:58.855Z,16.50
2022-10-16T03:17:25.824Z,17.30
2022-10-16T03:19:52.743Z,19.07
2022-10-16T03:22:19.341Z,18.67
2022-10-16T03:24:45.946Z,18.87
2022-10-16T03:27:12.559Z,17.97
2022-10-16T03:29:39.224Z,17.70
2022-10-16T03:32:05.804Z,17.90
2022-10-16T03:34:32.779Z,18.43
2022-10-16T03:36:59.326Z,19.73
2022-10-16T03:39:26.053Z,19.00
2022-10-16T03:41:52.634Z,19.07
2022-10-16T03:44:19.182Z,18.93
2022-10-16T03:46:45.745Z,20.57
2022-10-16T03:49:12.850Z,20.23
2022-10-16T03:51:39.496Z,20.97
2022-10-16T03:54:06.090Z,19.67
2022-10-16T03:56:32.731Z,21.27
2022-10-16T03:58:59.702Z,22.27
2022-10-16T04:01:26.300Z,20.80
2022-10-16T04:03:53.024Z,20.67
2022-10-16T04:06:19.852Z,22.07
2022-10-16T04:08:47.799Z,22.50
2022-10-16T04:11:14.752Z,21.67
2022-10-16T04:13:41.387Z,20.60
2022-10-16T04:16:08.000Z,19.90
2022-10-16T04:18:34.748Z,20.63
2022-10-16T04:21:04.898Z,20.07
2022-10-16T04:23:31.594Z,21.33
2022-10-16T04:25:58.193Z,19.63
2022-10-16T04:28:24.916Z,20.13
2022-10-16T04:30:51.693Z,21.13
2022-10-16T04:33:18.333Z,20.13
2022-10-16T04:35:44.992Z,20.67
2022-10-16T04:38:11.654Z,21.27
2022-10-16T04:40:38.284Z,20.47
2022-10-16T04:43:05.315Z,20.43
2022-10-16T04:45:31.901Z,20.80
2022-10-16T04:47:58.936Z,20.87
2022-10-16T04:50:25.547Z,21.77
2022-10-16T04:53:05.117Z,21.17
2022-10-16T04:55:31.741Z,21.27
2022-10-16T04:57:58.352Z,22.53
2022-10-16T05:00:25.003Z,23.10
2022-10-16T05:02:51.737Z,22.60
2022-10-16T05:05:20.358Z,23.53
2022-10-16T05:07:47.520Z,22.63
2022-10-16T05:10:14.217Z,22.23
2022-10-16T05:12:40.816Z,23.60
2022-10-16T05:15:10.060Z,24.30
2022-10-16T05:17:38.902Z,23.33
2022-10-16T05:20:06.748Z,24.33
2022-10-16T05:22:33.316Z,24.20
2022-10-16T05:24:59.936Z,24.53
2022-10-16T05:27:26.712Z,25.30
2022-10-16T05:29:53.530Z,24.03
2022-10-16T05:32:20.324Z,25.30
2022-10-16T05:34:47.059Z,24.73
2022-10-16T05:37:13.673Z,26.20
2022-10-16T05:39:40.409Z,25.80
2022-10-16T05:42:07.276Z,27.17
2022-10-16T05:47:00.856Z,27.30
2022-10-16T05:49:27.393Z,27.57
2022-10-16T05:51:53.948Z,26.83
2022-10-16T05:54:20.556Z,27.10
2022-10-16T05:56:48.167Z,28.13
2022-10-16T05:59:15.306Z,28.63
2022-10-16T06:01:41.995Z,28.40
2022-10-16T06:04:09.254Z,28.90
2022-10-16T06:06:37.409Z,30.60
2022-10-16T06:09:04.178Z,30.93
2022-10-16T06:11:31.730Z,30.00
2022-10-16T06:13:59.200Z,31.20
2022-10-16T06:16:26.101Z,31.97
2022-10-16T06:18:53.246Z,31.57
2022-10-16T06:21:25.971Z,30.13
2022-10-16T06:23:52.827Z,31.57
2022-10-16T06:26:20.257Z,32.50
2022-10-16T06:28:48.364Z,31.07
2022-10-16T06:31:15.356Z,31.13
2022-10-16T06:33:42.123Z,30.13
2022-10-16T06:36:09.869Z,30.27
2022-10-16T06:38:36.659Z,29.47
2022-10-16T06:41:03.330Z,28.20
2022-10-16T06:43:33.088Z,29.43
2022-10-16T06:46:00.116Z,29.53
2022-10-16T06:48:27.003Z,28.10
2022-10-16T06:53:39.517Z,28.20
2022-10-16T06:56:13.100Z,27.37
2022-10-16T06:58:39.873Z,26.60
2022-10-16T07:01:06.603Z,26.10
2022-10-16T07:03:33.417Z,26.50
2022-10-16T07:06:04.354Z,25.30
2022-10-16T07:08:38.111Z,25.17
2022-10-16T07:11:05.800Z,24.50
2022-10-16T07:13:36.209Z,23.73
2022-10-16T07:16:07.030Z,23.00
2022-10-16T07:18:33.912Z,21.80
2022-10-16T07:21:15.093Z,21.07
2022-10-16T07:23:42.261Z,22.07
2022-10-16T07:26:10.359Z,20.70
2022-10-16T07:28:37.100Z,21.10
2022-10-16T07:31:05.129Z,20.67
2022-10-16T07:33:32.733Z,23.50
2022-10-16T07:35:59.421Z,22.73
2022-10-16T07:38:26.100Z,23.77
2022-10-16T07:40:59.179Z,24.97
2022-10-16T07:43:26.604Z,25.50
2022-10-16T07:48:24.804Z,27.40
2022-10-16T07:50:52.459Z,28.53
2022-10-16T07:53:26.198Z,27.53
2022-10-16T07:55:54.123Z,28.27
2022-10-16T07:58:21.555Z,28.23
2022-10-16T08:00:48.258Z,30.67
2022-10-16T08:03:14.887Z,30.27
2022-10-16T08:05:42.105Z,29.40
2022-10-16T08:08:12.250Z,29.30
2022-10-16T08:10:40.748Z,29.53
2022-10-16T08:15:40.153Z,29.83
2022-10-16T08:18:08.139Z,28.83
2022-10-16T08:20:35.062Z,30.17
2022-10-16T08:23:03.017Z,31.23
2022-10-16T08:25:29.953Z,30.47
2022-10-16T08:27:56.653Z,31.13
2022-10-16T08:30:24.908Z,29.23
2022-10-16T08:32:52.661Z,30.60
2022-10-16T08:35:19.498Z,29.43
2022-10-16T08:37:46.473Z,29.37
2022-10-16T08:40:18.347Z,30.70
2022-10-16T08:42:46.186Z,28.00
2022-10-16T08:45:26.018Z,29.03
2022-10-16T08:47:59.689Z,28.00
2022-10-16T08:50:29.442Z,28.37
2022-10-16T08:52:56.276Z,28.40
2022-10-16T08:55:39.748Z,28.00
2022-10-16T08:58:17.011Z,26.97
2022-10-16T09:00:44.637Z,26.07
2022-10-16T09:03:30.016Z,27.50
2022-10-16T09:06:09.160Z,27.67
2022-10-16T09:08:55.171Z,28.07
2022-10-16T09:11:31.603Z,26.43
2022-10-16T09:14:17.211Z,26.17
2022-10-16T09:16:53.895Z,27.30
2022-10-16T09:19:35.465Z,28.27
2022-10-16T09:22:03.165Z,27.23
2022-10-16T09:24:30.679Z,25.43
2022-10-16T09:26:59.791Z,26.63
2022-10-16T09:29:30.329Z,24.63
2022-10-16T09:31:57.429Z,25.33
2022-10-16T09:34:27.585Z,24.87
2022-10-16T09:36:55.725Z,23.83
2022-10-16T09:39:22.989Z,26.40
2022-10-16T09:41:53.571Z,25.93
2022-10-16T09:44:29.952Z,26.50
2022-10-16T09:47:04.501Z,26.50
2022-10-16T09:49:31.357Z,27.30
2022-10-16T09:52:08.724Z,25.87
2022-10-16T09:54:35.403Z,26.60
2022-10-16T09:57:05.507Z,27.87
2022-10-16T09:59:34.089Z,27.60
2022-10-16T10:02:05.866Z,26.77
2022-10-16T10:04:44.126Z,28.17
2022-10-16T10:07:33.939Z,29.30
2022-10-16T10:10:00.895Z,28.77
2022-10-16T10:12:34.694Z,27.40
2022-10-16T10:15:05.556Z,26.60
2022-10-16T10:17:37.389Z,27.87
2022-10-16T10:20:24.934Z,28.67
2022-10-16T10:22:52.140Z,29.13
2022-10-16T10:25:25.017Z,27.87
2022-10-16T10:28:25.140Z,28.87
2022-10-16T10:31:18.397Z,26.90
2022-10-16T10:34:04.943Z,27.50
2022-10-16T10:36:33.255Z,26.87
2022-10-16T10:39:23.370Z,28.13
2022-10-16T10:41:49.973Z,27.97
2022-10-16T10:44:36.513Z,27.20
2022-10-16T10:47:05.535Z,27.30
2022-10-16T10:49:50.870Z,27.67
2022-10-16T10:52:24.863Z,26.80
2022-10-16T10:55:12.248Z,26.73
2022-10-16T10:58:02.339Z,27.53
2022-10-16T11:00:32.943Z,24.77
2022-10-16T11:03:35.161Z,25.23
2022-10-16T11:06:14.491Z,25.23
2022-10-16T11:08:41.084Z,20.57
2022-10-16T11:11:26.516Z,20.10
2022-10-16T11:14:20.329Z,19.63
2022-10-16T11:16:56.116Z,18.93
2022-10-16T11:19:23.810Z,18.43
2022-10-16T11:21:51.834Z,17.70
2022-10-16T11:24:27.196Z,16.40
2022-10-16T11:26:54.374Z,16.23
2022-10-16T11:29:23.850Z,15.93
2022-10-16T11:31:54.232Z,14.97
2022-10-16T11:34:43.223Z,14.67
2022-10-16T11:37:11.056Z,15.77
2022-10-16T11:39:38.151Z,15.33
2022-10-16T11:42:12.764Z,15.00
2022-10-16T11:44:42.536Z,13.73
2022-10-16T11:47:46.642Z,13.43
2022-10-16T11:50:13.085Z,12.80
2022-10-16T11:52:48.028Z,11.77
2022-10-16T11:55:18.839Z,12.67
2022-10-16T11:57:47.751Z,10.43
2022-10-16T12:00:20.830Z,10.00
2022-10-16T12:02:47.509Z,10.20
2022-10-16T12:05:34.622Z,10.80
2022-10-16T12:08:03.510Z,10.50
2022-10-16T12:10:32.726Z,10.83
2022-10-16T12:13:00.852Z,9.50
2022-10-16T12:15:57.694Z,9.40
2022-10-16T12:18:25.812Z,8.53
2022-10-16T12:21:00.445Z,8.53
2022-10-16T12:23:27.340Z,8.50
2022-10-16T12:25:57.964Z,8.97
2022-10-16T12:28:31.118Z,8.57
2022-10-16T12:30:59.197Z,8.67
2022-10-16T12:33:32.839Z,6.03
2022-10-16T12:36:00.334Z,7.20
2022-10-16T12:38:42.505Z,6.57
2022-10-16T12:41:09.932Z,6.63
2022-10-16T12:43:39.761Z,6.10
2022-10-16T12:46:09.564Z,5.77
2022-10-16T12:48:49.114Z,6.00
2022-10-16T12:51:23.947Z,5.80
2022-10-16T12:54:11.589Z,6.27
2022-10-16T12:56:42.587Z,5.33
2022-10-16T12:59:27.723Z,5.70
2022-10-16T13:02:16.310Z,5.43
2022-10-16T13:04:49.609Z,5.93
2022-10-16T13:07:16.393Z,5.90
2022-10-16T13:09:50.825Z,5.87
2022-10-16T13:12:37.030Z,5.27
2022-10-16T13:15:22.421Z,5.63
2022-10-16T13:17:55.410Z,5.53
2022-10-16T13:20:32.025Z,5.50
2022-10-16T13:23:09.137Z,5.80
2022-10-16T13:25:46.778Z,5.87
2022-10-16T13:28:13.754Z,6.67
2022-10-16T13:30:40.803Z,6.27
2022-10-16T13:33:27.662Z,6.03
2022-10-16T13:35:58.442Z,6.13
2022-10-16T13:38:26.747Z,6.03
2022-10-16T13:40:53.587Z,5.73
2022-10-16T13:43:20.936Z,6.17
2022-10-16T13:46:04.991Z,6.50
2022-10-16T13:48:33.863Z,6.20
2022-10-16T13:53:56.020Z,6.60
2022-10-16T13:56:23.664Z,6.10
2022-10-16T13:59:03.608Z,6.30
2022-10-16T14:01:32.712Z,6.87
2022-10-16T14:04:04.174Z,6.17
2022-10-16T14:06:33.328Z,6.17
2022-10-16T14:09:03.375Z,6.80
2022-10-16T14:11:32.580Z,6.50
2022-10-16T14:14:02.305Z,7.13
2022-10-16T14:16:33.852Z,7.17
2022-10-16T14:19:05.032Z,6.63
2022-10-16T14:21:35.568Z,7.37
2022-10-16T14:24:11.459Z,7.17
2022-10-16T14:26:44.781Z,6.90
2022-10-16T14:29:15.869Z,6.73
2022-10-16T14:31:42.620Z,7.07
2022-10-16T14:34:48.249Z,6.83
2022-10-16T14:37:22.618Z,6.60
2022-10-16T14:39:52.329Z,7.20
2022-10-16T14:42:20.417Z,7.57
2022-10-16T14:44:47.337Z,7.10
2022-10-16T14:47:15.020Z,7.80
2022-10-16T14:49:45.072Z,7.73
2022-10-16T14:52:14.642Z,7.47
2022-10-16T14:54:42.604Z,8.07
2022-10-16T14:57:27.607Z,7.83
2022-10-16T14:59:55.424Z,8.67
2022-10-16T15:02:35.288Z,8.33
2022-10-16T15:05:28.289Z,8.20
2022-10-16T15:07:56.371Z,8.40
2022-10-16T15:10:24.209Z,7.93
2022-10-16T15:12:51.096Z,8.43
2022-10-16T15:15:37.823Z,8.47
2022-10-16T15:18:05.730Z,7.70
2022-10-16T15:20:34.798Z,8.20
2022-10-16T15:23:05.423Z,8.00
2022-10-16T15:25:45.207Z,8.73
2022-10-16T15:28:12.041Z,8.90
2022-10-16T15:30:39.086Z,8.83
2022-10-16T15:33:08.731Z,9.33
2022-10-16T15:35:35.547Z,8.60
2022-10-16T15:38:02.974Z,8.43
2022-10-16T15:40:29.686Z,8.17
2022-10-16T15:42:56.379Z,8.37
2022-10-16T15:45:23.121Z,8.83
2022-10-16T15:47:49.928Z,8.80
2022-10-16T15:50:16.994Z,9.20
2022-10-16T15:52:43.855Z,9.83
2022-10-16T15:55:11.245Z,9.23
2022-10-16T15:57:42.120Z,8.93
2022-10-16T16:00:10.611Z,9.13
2022-10-16T16:02:40.836Z,9.07
2022-10-16T16:05:10.782Z,8.63
2022-10-16T16:07:38.376Z,9.10
2022-10-16T16:10:05.642Z,9.50
2022-10-16T16:12:34.478Z,9.00
2022-10-16T16:15:04.880Z,8.90
2022-10-16T16:17:33.235Z,9.00
2022-10-16T16:20:02.290Z,9.83
2022-10-16T16:22:29.799Z,9.67
2022-10-16T16:24:57.144Z,8.93
2022-10-16T16:27:26.759Z,8.87
2022-10-16T16:29:56.654Z,10.00
2022-10-16T16:32:24.084Z,9.33
2022-10-16T16:34:51.052Z,8.33
2022-10-16T16:37:17.760Z,10.13
2022-10-16T16:39:44.731Z,10.63
2022-10-16T16:42:11.962Z,11.17
2022-10-16T16:44:39.030Z,10.37
2022-10-16T16:47:07.203Z,11.13
2022-10-16T16:49:34.949Z,9.60
2022-10-16T16:52:02.518Z,11.47
2022-10-16T16:54:29.660Z,11.20
2022-10-16T16:56:56.817Z,12.00
2022-10-16T16:59:24.945Z,11.90
2022-10-16T17:01:57.148Z,12.17
2022-10-16T17:04:24.398Z,12.53
2022-10-16T17:06:51.202Z,11.97
2022-10-16T17:09:17.988Z,11.87
2022-10-16T17:11:45.711Z,10.83
2022-10-16T17:14:12.818Z,11.30
2022-10-16T17:16:40.968Z,11.77
2022-10-16T17:19:18.185Z,12.40
2022-10-16T17:21:47.615Z,10.43
2022-10-16T17:24:15.664Z,12.67
2022-10-16T17:26:50.272Z,12.33
2022-10-16T17:29:18.097Z,12.10
2022-10-16T17:31:44.884Z,11.60
2022-10-16T17:34:14.247Z,13.20
2022-10-16T17:36:49.561Z,11.27
2022-10-16T17:39:18.327Z,13.20
2022-10-16T17:41:45.479Z,12.20
2022-10-16T17:44:19.587Z,11.07
2022-10-16T17:46:48.206Z,12.07
2022-10-16T17:49:15.100Z,40.03
2022-10-16T17:51:42.735Z,103.40
2022-10-16T17:54:12.170Z,69.03
2022-10-16T17:56:39.177Z,20.33
2022-10-16T17:59:07.238Z,16.13
2022-10-16T18:01:36.996Z,15.40
2022-10-16T18:04:05.969Z,13.63
2022-10-16T18:06:35.217Z,15.73
2022-10-16T18:09:02.187Z,13.90
2022-10-16T18:11:34.500Z,14.23
2022-10-16T18:14:03.279Z,13.73
2022-10-16T18:16:30.241Z,13.60
2022-10-16T18:18:57.795Z,13.33
2022-10-16T18:21:28.916Z,13.90
2022-10-16T18:23:58.386Z,12.97
2022-10-16T18:26:25.105Z,11.73
2022-10-16T18:28:56.871Z,11.50
2022-10-16T18:31:24.034Z,12.33
2022-10-16T18:33:54.832Z,13.17
2022-10-16T18:36:24.299Z,12.27
2022-10-16T18:38:52.852Z,11.50
2022-10-16T18:41:19.884Z,12.87
2022-10-16T18:43:48.738Z,13.10
2022-10-16T18:46:22.776Z,15.40
2022-10-16T18:48:50.055Z,13.73
2022-10-16T18:51:22.895Z,12.90
2022-10-16T18:53:55.563Z,13.13
2022-10-16T18:56:24.217Z,14.37
2022-10-16T18:58:54.400Z,13.17
2022-10-16T19:01:23.513Z,12.87
2022-10-16T19:03:55.669Z,16.83
2022-10-16T19:06:24.341Z,15.60
2022-10-16T19:08:56.374Z,16.07
2022-10-16T19:11:23.942Z,17.37
2022-10-16T19:13:51.748Z,15.70
2022-10-16T19:16:21.407Z,21.17
2022-10-16T19:18:53.179Z,19.07
2022-10-16T19:21:20.227Z,17.93
2022-10-16T19:23:47.174Z,17.07
2022-10-16T19:26:18.286Z,15.27
2022-10-16T19:28:47.244Z,15.90
2022-10-16T19:31:16.355Z,14.07
2022-10-16T19:33:43.442Z,13.93
2022-10-16T19:36:19.010Z,16.17
2022-10-16T19:38:50.878Z,15.03
2022-10-16T19:41:18.143Z,15.03
2022-10-16T19:43:45.097Z,17.43
2022-10-16T19:46:18.673Z,17.43
2022-10-16T19:48:47.279Z,15.50
2022-10-16T19:51:20.258Z,18.90
2022-10-16T19:53:47.163Z,17.43
2022-10-16T19:56:15.226Z,17.43
2022-10-16T19:58:43.337Z,18.40
2022-10-16T20:01:10.171Z,19.07
2022-10-16T20:03:41.769Z,16.50
2022-10-16T20:06:09.144Z,18.60
2022-10-16T20:08:36.345Z,14.40
2022-10-16T20:11:04.044Z,16.50
2022-10-16T20:13:30.889Z,13.73
2022-10-16T20:15:57.752Z,13.77
2022-10-16T20:18:24.617Z,13.20
2022-10-16T20:20:52.825Z,13.37
2022-10-16T20:23:20.122Z,12.80
2022-10-16T20:25:47.002Z,12.50
2022-10-16T20:28:15.869Z,13.50
2022-10-16T20:30:44.288Z,11.37
2022-10-16T20:33:15.613Z,12.43
2022-10-16T20:35:43.759Z,13.53
2022-10-16T20:38:12.062Z,13.50
2022-10-16T20:40:39.458Z,13.63
2022-10-16T20:43:06.320Z,13.87
2022-10-16T20:45:33.524Z,17.97
2022-10-16T20:48:00.979Z,12.93
2022-10-16T20:50:30.844Z,11.97
2022-10-16T20:52:57.961Z,11.73
2022-10-16T20:55:24.627Z,13.10
2022-10-16T20:57:52.249Z,13.23
2022-10-16T21:00:20.540Z,11.87
2022-10-16T21:02:49.762Z,13.70
2022-10-16T21:05:16.587Z,12.33
2022-10-16T21:07:44.110Z,22.87
2022-10-16T21:10:10.810Z,18.30
2022-10-16T21:12:40.083Z,36.20
2022-10-16T21:15:14.935Z,16.53
2022-10-16T21:17:43.824Z,12.70
2022-10-16T21:20:17.646Z,15.30
2022-10-16T21:22:44.329Z,14.03
2022-10-16T21:25:11.189Z,11.50
2022-10-16T21:27:38.452Z,16.87
2022-10-16T21:30:11.317Z,11.83
2022-10-16T21:32:38.891Z,17.10
2022-10-16T21:35:06.404Z,15.10
2022-10-16T21:37:33.367Z,11.83
2022-10-16T21:39:59.933Z,16.10
2022-10-16T21:42:26.969Z,18.80
2022-10-16T21:44:54.116Z,16.23
2022-10-16T21:47:20.683Z,13.97
2022-10-16T21:49:47.187Z,12.13
2022-10-16T21:52:13.884Z,12.03
2022-10-16T21:54:41.580Z,10.93
2022-10-16T21:57:08.221Z,11.90
2022-10-16T21:59:34.908Z,11.23
2022-10-16T22:02:03.231Z,10.20
2022-10-16T22:04:29.840Z,10.30
2022-10-16T22:06:56.511Z,9.60
2022-10-16T22:09:23.338Z,8.37
2022-10-16T22:11:53.628Z,9.27
2022-10-16T22:14:20.921Z,9.00
2022-10-16T22:16:47.945Z,10.03
2022-10-16T22:19:15.196Z,9.23
2022-10-16T22:21:41.878Z,10.10
2022-10-16T22:24:08.503Z,9.17
2022-10-16T22:26:35.669Z,9.60
2022-10-16T22:29:02.356Z,10.13
2022-10-16T22:31:29.313Z,9.50
2022-10-16T22:33:58.818Z,8.97
2022-10-16T22:36:25.941Z,11.63
2022-10-16T22:38:53.731Z,14.70
2022-10-16T22:41:20.452Z,9.97
2022-10-16T22:43:50.442Z,11.13
2022-10-16T22:46:21.187Z,10.17
2022-10-16T22:48:47.867Z,8.43
2022-10-16T22:51:16.916Z,9.83
2022-10-16T22:53:44.711Z,10.77
2022-10-16T22:56:11.270Z,9.57
2022-10-16T22:58:37.893Z,8.73
2022-10-16T23:01:09.970Z,7.77
2022-10-16T23:03:36.697Z,7.60
2022-10-16T23:06:03.917Z,7.33
2022-10-16T23:08:30.484Z,7.40
2022-10-16T23:11:00.959Z,6.70
2022-10-16T23:13:27.943Z,7.10
2022-10-16T23:15:54.480Z,7.33
2022-10-16T23:18:21.052Z,7.43
2022-10-16T23:20:47.588Z,6.90
2022-10-16T23:23:14.192Z,6.20
2022-10-16T23:25:44.672Z,5.67
2022-10-16T23:28:11.300Z,6.60
2022-10-16T23:30:38.638Z,7.33
2022-10-16T23:33:05.261Z,5.73
2022-10-16T23:35:31.823Z,6.33
2022-10-16T23:37:58.385Z,6.50
2022-10-16T23:40:24.917Z,5.60
2022-10-16T23:42:51.640Z,5.50
2022-10-16T23:45:18.211Z,6.10
2022-10-16T23:47:44.809Z,5.60
2022-10-16T23:50:11.437Z,5.17
2022-10-16T23:52:38.067Z,6.27
2022-10-16T23:55:05.130Z,5.50
2022-10-16T23:57:31.730Z,6.23
2022-10-16T23:59:58.303Z,5.40
